createdAt,value
2023-05-14T00:00:17.319Z,90.9987
2023-05-14T00:01:17.321Z,91.3759
2023-05-14T00:02:17.908Z,91.4872
2023-05-14T00:03:18.917Z,90.7749
2023-05-14T00:04:19.840Z,91.2433
2023-05-14T00:05:20.084Z,91.5900
2023-05-14T00:06:20.242Z,91.6979
2023-05-14T00:07:20.556Z,91.8901
2023-05-14T00:08:21.526Z,92.0859
2023-05-14T00:09:22.686Z,91.2264
2023-05-14T00:10:23.545Z,91.0159
2023-05-14T00:11:24.233Z,91.7058
2023-05-14T00:12:24.372Z,92.1734
2023-05-14T00:13:24.660Z,92.5061
2023-05-14T00:14:24.793Z,92.1444
2023-05-14T00:15:25.832Z,91.6897
2023-05-14T00:16:27.152Z,91.4174
2023-05-14T00:17:28.023Z,91.6023
2023-05-14T00:18:28.823Z,91.7366
2023-05-14T00:20:49.517Z,91.9087
2023-05-14T00:28:56.742Z,92.0564
2023-05-14T00:30:56.408Z,92.4662
2023-05-14T00:31:56.357Z,92.7231
2023-05-14T00:32:57.275Z,92.5325
2023-05-14T00:33:58.144Z,92.2952
2023-05-14T00:34:59.520Z,92.3883
2023-05-14T00:36:00.418Z,92.2636
2023-05-14T00:37:01.105Z,92.5317
2023-05-14T00:38:01.593Z,92.3928
2023-05-14T00:39:02.495Z,91.8482
2023-05-14T00:40:03.138Z,91.7508
2023-05-14T00:41:03.512Z,91.2814
2023-05-14T00:45:05.218Z,91.7600
2023-05-14T00:46:05.498Z,91.8125
2023-05-14T00:47:07.273Z,91.9464
2023-05-14T00:48:07.938Z,91.8721
2023-05-14T00:49:08.270Z,91.7635
2023-05-14T00:50:09.275Z,92.0825
2023-05-14T00:51:09.862Z,92.1535
2023-05-14T00:52:09.992Z,92.1425
2023-05-14T00:53:10.149Z,92.2266
2023-05-14T00:54:11.656Z,92.5177
2023-05-14T01:00:16.664Z,91.6854
2023-05-14T01:05:18.474Z,91.7185
2023-05-14T01:14:22.885Z,91.7625
2023-05-14T01:15:23.354Z,92.0456
2023-05-14T01:16:23.838Z,92.2430
2023-05-14T01:17:24.969Z,91.9435
2023-05-14T01:18:24.991Z,91.8981
2023-05-14T01:19:26.197Z,91.7313
2023-05-14T01:20:27.644Z,91.1393
2023-05-14T01:21:27.913Z,90.6174
2023-05-14T01:22:29.119Z,90.6895
2023-05-14T01:35:33.132Z,90.8972
2023-05-14T01:37:33.275Z,91.0578
2023-05-14T01:38:34.218Z,91.1475
2023-05-14T01:40:35.200Z,91.1377
2023-05-14T01:41:36.115Z,91.5538
2023-05-14T01:42:37.250Z,91.6796
2023-05-14T01:43:37.475Z,91.9167
2023-05-14T01:44:37.841Z,92.2459
2023-05-14T01:51:41.113Z,91.6670
2023-05-14T01:59:46.509Z,91.7220
2023-05-14T02:00:46.550Z,92.0283
2023-05-14T02:02:49.765Z,92.5396
2023-05-14T02:03:50.147Z,92.4986
2023-05-14T02:05:53.668Z,92.3938
2023-05-14T02:07:54.512Z,92.8850
2023-05-14T02:08:54.857Z,93.0956
2023-05-14T02:09:56.006Z,93.1423
2023-05-14T02:10:57.047Z,92.9634
2023-05-14T02:11:57.378Z,92.5139
2023-05-14T02:12:57.452Z,92.2420
2023-05-14T02:13:57.829Z,92.0236
2023-05-14T02:14:59.042Z,92.2335
2023-05-14T02:20:02.134Z,92.5451
2023-05-14T02:21:02.938Z,92.6389
2023-05-14T02:22:03.789Z,92.5894
2023-05-14T02:23:03.908Z,92.1614
2023-05-14T02:24:05.174Z,92.2703
2023-05-14T02:25:05.860Z,92.2969
2023-05-14T02:26:06.912Z,92.3906
2023-05-14T02:35:15.101Z,92.2405
2023-05-14T02:36:14.541Z,92.0519
2023-05-14T02:37:14.888Z,92.0080
2023-05-14T02:38:15.533Z,92.1466
2023-05-14T02:39:15.890Z,92.4035
2023-05-14T02:40:16.811Z,92.4668
2023-05-14T02:41:18.317Z,92.6111
2023-05-14T02:42:19.274Z,92.9289
2023-05-14T02:44:20.862Z,93.4715
2023-05-14T02:45:21.324Z,93.7568
2023-05-14T02:46:21.614Z,93.8594
2023-05-14T02:47:22.696Z,93.9631
2023-05-14T02:48:23.393Z,93.9761
2023-05-14T02:49:24.580Z,93.9499
2023-05-14T02:50:25.273Z,93.9302
2023-05-14T02:51:25.468Z,93.9025
2023-05-14T02:52:26.180Z,93.9433
2023-05-14T02:53:26.880Z,93.9279
2023-05-14T02:54:27.433Z,93.8667
2023-05-14T02:55:28.465Z,93.8302
2023-05-14T02:56:29.219Z,93.8496
2023-05-14T02:57:29.320Z,93.9368
2023-05-14T02:58:30.227Z,93.9904
2023-05-14T02:59:30.507Z,93.9307
2023-05-14T03:00:30.539Z,93.7933
2023-05-14T03:01:31.345Z,93.7186
2023-05-14T03:02:32.162Z,93.7116
2023-05-14T03:11:42.262Z,93.6826
2023-05-14T03:13:41.998Z,93.8438
2023-05-14T03:14:43.517Z,93.8053
2023-05-14T03:15:44.774Z,93.5738
2023-05-14T03:16:45.620Z,93.5761
2023-05-14T03:17:46.821Z,93.6909
2023-05-14T03:21:48.335Z,93.9160
2023-05-14T03:22:49.175Z,94.0052
2023-05-14T03:23:49.930Z,94.1743
2023-05-14T03:24:50.183Z,94.3040
2023-05-14T03:25:50.538Z,94.3482
2023-05-14T03:26:51.920Z,94.4340
2023-05-14T03:31:55.725Z,94.8871
2023-05-14T03:42:02.944Z,95.6245
2023-05-14T03:43:03.437Z,95.6660
2023-05-14T03:44:03.657Z,95.6799
2023-05-14T03:45:04.532Z,95.7030
2023-05-14T03:46:05.442Z,95.7246
2023-05-14T03:48:06.331Z,95.7829
2023-05-14T03:49:06.941Z,95.8170
2023-05-14T03:51:06.722Z,95.8758
2023-05-14T03:52:10.597Z,95.9157
2023-05-14T03:54:09.318Z,95.9810
2023-05-14T04:02:13.972Z,96.0717
2023-05-14T04:03:14.707Z,96.0357
2023-05-14T04:04:15.790Z,96.0085
2023-05-14T04:05:17.190Z,96.0038
2023-05-14T04:07:18.093Z,95.9873
2023-05-14T04:08:19.112Z,95.9150
2023-05-14T04:10:20.317Z,95.7660
2023-05-14T04:11:20.547Z,95.6304
2023-05-14T04:12:20.559Z,95.4600
2023-05-14T04:13:22.097Z,95.3360
2023-05-14T04:14:22.815Z,95.2871
2023-05-14T04:18:24.553Z,94.8629
2023-05-14T04:19:24.650Z,94.7445
2023-05-14T04:20:24.886Z,94.3276
2023-05-14T04:21:26.125Z,93.8833
2023-05-14T04:22:26.361Z,93.6808
2023-05-14T04:23:26.604Z,93.4756
2023-05-14T04:24:27.786Z,93.5746
2023-05-14T04:30:32.613Z,92.9274
2023-05-14T04:31:34.567Z,92.3198
2023-05-14T04:35:35.708Z,92.1804
2023-05-14T04:36:36.442Z,92.4872
2023-05-14T04:37:37.129Z,92.2554
2023-05-14T04:38:37.312Z,91.8725
2023-05-14T04:43:40.252Z,91.8919
2023-05-14T04:49:44.212Z,90.6227
2023-05-14T04:50:45.274Z,90.2542
2023-05-14T04:51:46.112Z,89.6534
2023-05-14T04:52:46.802Z,89.7541
2023-05-14T04:53:47.762Z,90.2062
2023-05-14T04:54:47.508Z,90.5551
2023-05-14T04:55:48.448Z,90.8295
2023-05-14T05:01:53.309Z,90.3157
2023-05-14T05:13:02.079Z,87.5846
2023-05-14T05:14:02.749Z,86.5542
2023-05-14T05:16:02.808Z,87.7555
2023-05-14T05:17:03.271Z,88.1306
2023-05-14T05:18:04.807Z,88.1995
2023-05-14T05:19:05.908Z,87.5785
2023-05-14T05:20:06.790Z,87.3750
2023-05-14T05:21:07.254Z,87.4919
2023-05-14T05:28:10.863Z,86.3598
2023-05-14T05:29:11.186Z,85.9655
2023-05-14T05:30:11.783Z,85.6732
2023-05-14T05:31:13.169Z,86.2700
2023-05-14T05:33:13.229Z,85.5610
2023-05-14T05:35:13.941Z,85.2206
2023-05-14T05:36:14.593Z,85.3181
2023-05-14T05:37:15.910Z,85.3210
2023-05-14T05:51:27.929Z,83.7854
2023-05-14T05:52:28.720Z,83.7953
2023-05-14T05:53:29.423Z,83.4818
2023-05-14T05:54:30.054Z,82.8787
2023-05-14T05:55:31.285Z,83.2540
2023-05-14T05:56:32.560Z,83.0723
2023-05-14T05:57:32.623Z,82.8459
2023-05-14T05:58:33.280Z,81.5008
2023-05-14T05:59:34.007Z,81.0903
2023-05-14T06:09:38.585Z,84.9383
2023-05-14T06:10:39.137Z,85.8634
2023-05-14T06:11:39.382Z,85.9999
2023-05-14T06:12:39.965Z,86.9911
2023-05-14T06:13:40.738Z,87.0023
2023-05-14T06:14:41.188Z,86.4948
2023-05-14T06:15:43.053Z,86.9741
2023-05-14T06:16:44.407Z,86.8033
2023-05-14T06:17:44.854Z,86.8931
2023-05-14T06:18:45.803Z,86.9897
2023-05-14T06:19:46.352Z,87.3302
2023-05-14T06:20:46.527Z,86.9915
2023-05-14T06:22:49.843Z,86.3380
2023-05-14T06:23:50.302Z,86.6203
2023-05-14T06:24:50.358Z,86.8726
2023-05-14T06:26:54.662Z,87.0522
2023-05-14T06:27:55.006Z,87.1594
2023-05-14T06:28:55.091Z,87.1350
2023-05-14T06:30:57.474Z,87.4729
2023-05-14T06:31:57.812Z,87.1311
2023-05-14T06:34:01.022Z,87.0904
2023-05-14T06:35:02.108Z,86.9710
2023-05-14T06:37:02.866Z,86.2663
2023-05-14T06:38:02.934Z,86.0367
2023-05-14T06:39:03.690Z,86.6560
2023-05-14T06:40:05.186Z,86.2788
2023-05-14T06:41:05.350Z,86.0009
2023-05-14T06:43:07.611Z,86.8552
2023-05-14T06:48:17.027Z,86.3679
2023-05-14T06:49:17.961Z,86.6861
2023-05-14T06:50:18.883Z,86.2932
2023-05-14T06:54:38.691Z,86.6564
2023-05-14T06:55:39.799Z,86.4880
2023-05-14T06:56:40.053Z,86.6463
2023-05-14T06:57:41.024Z,86.9530
2023-05-14T06:58:42.843Z,86.8606
2023-05-14T07:00:42.978Z,87.0045
2023-05-14T07:01:44.088Z,85.5810
2023-05-14T07:02:45.032Z,85.5219
2023-05-14T07:09:26.055Z,87.8765
2023-05-14T07:10:28.654Z,87.8045
2023-05-14T07:18:08.915Z,88.0499
2023-05-14T07:19:09.746Z,88.3699
2023-05-14T07:20:11.216Z,88.2999
2023-05-14T07:21:11.335Z,89.1063
2023-05-14T07:22:12.969Z,89.2864
2023-05-14T07:23:13.756Z,89.1078
2023-05-14T07:25:14.655Z,88.7763
2023-05-14T07:26:14.711Z,87.9583
2023-05-14T07:27:15.726Z,87.8368
2023-05-14T07:28:17.188Z,87.6911
2023-05-14T07:29:17.237Z,87.0439
2023-05-14T07:30:17.693Z,85.9625
2023-05-14T07:31:19.364Z,85.0169
2023-05-14T07:32:20.246Z,84.6419
2023-05-14T07:36:21.477Z,82.1231
2023-05-14T07:38:22.457Z,83.1240
2023-05-14T07:39:22.758Z,82.7369
2023-05-14T07:40:23.081Z,84.0861
2023-05-14T07:46:25.179Z,80.6763
2023-05-14T07:47:26.518Z,79.2041
2023-05-14T07:48:27.015Z,78.2861
2023-05-14T07:49:27.935Z,77.8543
2023-05-14T07:50:29.142Z,76.5868
2023-05-14T07:51:30.206Z,77.0676
2023-05-14T07:52:31.957Z,74.6082
2023-05-14T07:53:32.585Z,73.5572
2023-05-14T07:54:33.388Z,72.5965
2023-05-14T07:55:34.145Z,71.7362
2023-05-14T07:56:46.949Z,70.6779
2023-05-14T08:06:54.103Z,75.1115
2023-05-14T08:10:56.994Z,76.5159
2023-05-14T08:13:57.140Z,74.2527
2023-05-14T08:14:57.616Z,75.0019
2023-05-14T08:15:57.624Z,73.5362
2023-05-14T08:16:58.854Z,75.9791
2023-05-14T08:17:59.454Z,76.5497
2023-05-14T08:19:00.497Z,77.6905
2023-05-14T08:20:01.839Z,78.0438
2023-05-14T08:21:05.408Z,77.9140
2023-05-14T08:22:06.196Z,73.1260
2023-05-14T08:23:07.412Z,74.5355
2023-05-14T08:25:10.066Z,73.1316
2023-05-14T08:26:10.436Z,74.6553
2023-05-14T08:29:46.208Z,79.5470
2023-05-14T08:30:46.630Z,78.2161
2023-05-14T08:31:46.858Z,77.7135
2023-05-14T08:32:47.489Z,77.8920
2023-05-14T08:33:48.502Z,78.4451
2023-05-14T08:34:50.003Z,78.2381
2023-05-14T08:36:55.195Z,77.5113
2023-05-14T08:37:55.678Z,77.9259
2023-05-14T08:38:56.018Z,78.1817
2023-05-14T08:39:56.454Z,78.0147
2023-05-14T08:40:56.939Z,77.0829
2023-05-14T08:41:57.801Z,74.4917
2023-05-14T08:42:58.951Z,75.0218
2023-05-14T08:43:59.736Z,75.4054
2023-05-14T08:45:00.781Z,75.3164
2023-05-14T08:46:01.897Z,75.1859
2023-05-14T08:47:02.246Z,75.3477
2023-05-14T08:48:04.863Z,75.0081
2023-05-14T08:50:03.718Z,76.2543
2023-05-14T08:51:04.191Z,76.8194
2023-05-14T08:52:04.948Z,75.5704
2023-05-14T08:53:05.528Z,74.2486
2023-05-14T08:54:05.723Z,74.4430
2023-05-14T08:55:06.651Z,71.9315
2023-05-14T08:56:06.526Z,72.6268
2023-05-14T08:57:07.012Z,72.8643
2023-05-14T09:05:14.789Z,70.5032
2023-05-14T09:06:15.580Z,67.8618
2023-05-14T09:07:16.249Z,69.2831
2023-05-14T09:09:04.183Z,70.2985
2023-05-14T09:10:04.608Z,72.4877
2023-05-14T09:11:06.628Z,71.7025
2023-05-14T09:12:07.477Z,71.3113
2023-05-14T09:13:08.683Z,72.4387
2023-05-14T09:14:09.880Z,67.0552
2023-05-14T09:15:10.941Z,70.2937
2023-05-14T09:16:12.466Z,69.0919
2023-05-14T09:17:12.255Z,71.5126
2023-05-14T09:18:13.495Z,71.0787
2023-05-14T09:19:14.227Z,70.5328
2023-05-14T09:20:15.167Z,71.0442
2023-05-14T09:24:04.407Z,74.3084
2023-05-14T09:30:09.629Z,74.5001
2023-05-14T09:31:09.740Z,74.6409
2023-05-14T09:33:09.799Z,76.0828
2023-05-14T09:35:10.686Z,77.2619
2023-05-14T09:36:11.969Z,77.0969
2023-05-14T09:37:12.892Z,76.0496
2023-05-14T09:43:22.971Z,73.4374
2023-05-14T09:46:26.617Z,72.7273
2023-05-14T09:47:26.917Z,72.4475
2023-05-14T09:48:26.985Z,73.5050
2023-05-14T09:49:27.810Z,73.0088
2023-05-14T09:51:29.033Z,70.9147
2023-05-14T09:52:29.700Z,72.5882
2023-05-14T09:53:30.756Z,73.3645
2023-05-14T09:57:58.389Z,76.1861
2023-05-14T09:58:58.897Z,76.7360
2023-05-14T10:00:00.001Z,76.6564
2023-05-14T10:01:01.078Z,76.5351
2023-05-14T10:02:02.260Z,78.4363
2023-05-14T10:03:02.262Z,77.7303
2023-05-14T10:04:04.057Z,76.6618
2023-05-14T10:05:05.262Z,76.8894
2023-05-14T10:06:05.399Z,76.2488
2023-05-14T10:07:06.413Z,77.8177
2023-05-14T10:08:06.792Z,79.1356
2023-05-14T10:09:07.405Z,78.5110
2023-05-14T10:10:08.514Z,77.9779
2023-05-14T10:12:09.651Z,77.8074
2023-05-14T10:13:10.601Z,76.5841
2023-05-14T10:16:41.015Z,77.3811
2023-05-14T10:17:41.149Z,77.8631
2023-05-14T10:18:42.303Z,76.7669
2023-05-14T10:19:43.166Z,75.7570
2023-05-14T10:20:44.306Z,76.5093
2023-05-14T10:21:45.144Z,77.5358
2023-05-14T10:22:45.408Z,75.1575
2023-05-14T10:29:25.077Z,75.5463
2023-05-14T10:30:26.446Z,76.1223
2023-05-14T10:31:26.430Z,76.4755
2023-05-14T10:32:27.166Z,77.4594
2023-05-14T10:33:27.679Z,77.6572
2023-05-14T10:34:29.008Z,76.9017
2023-05-14T10:35:30.244Z,78.0262
2023-05-14T10:36:31.102Z,76.7121
2023-05-14T10:37:31.752Z,78.1661
2023-05-14T10:42:20.660Z,76.2745
2023-05-14T10:51:07.710Z,73.7996
2023-05-14T10:52:07.749Z,72.3551
2023-05-14T10:53:08.717Z,71.4223
2023-05-14T10:54:09.123Z,71.9279
2023-05-14T10:55:10.404Z,69.7807
2023-05-14T10:56:10.629Z,72.4991
2023-05-14T10:57:11.346Z,73.0697
2023-05-14T10:58:11.531Z,73.2446
2023-05-14T10:59:12.615Z,72.2414
2023-05-14T11:00:13.273Z,72.1735
2023-05-14T11:01:13.329Z,71.3824
2023-05-14T11:02:15.901Z,71.6341
2023-05-14T11:06:40.378Z,68.2744
2023-05-14T11:10:41.680Z,61.7150
2023-05-14T11:11:42.771Z,61.4720
2023-05-14T11:12:43.440Z,59.9624
2023-05-14T11:13:44.244Z,61.1919
2023-05-14T11:18:48.534Z,66.1663
2023-05-14T11:19:50.461Z,66.9806
2023-05-14T11:31:31.454Z,75.4932
2023-05-14T11:32:31.719Z,76.3454
2023-05-14T11:33:33.341Z,75.8140
2023-05-14T11:34:33.322Z,74.6197
2023-05-14T11:35:34.284Z,74.4250
2023-05-14T11:36:36.277Z,74.2165
2023-05-14T11:38:36.441Z,73.7753
2023-05-14T11:41:39.737Z,70.6829
2023-05-14T11:43:45.782Z,70.6105
2023-05-14T11:48:53.674Z,70.1431
2023-05-14T11:49:53.924Z,71.0494
2023-05-14T11:51:29.098Z,71.3014
2023-05-14T11:53:33.493Z,71.7989
2023-05-14T11:55:31.290Z,70.5130
2023-05-14T11:58:32.230Z,69.7149
2023-05-14T11:59:33.201Z,69.3226
2023-05-14T12:01:34.298Z,69.1257
2023-05-14T12:02:35.234Z,67.9325
2023-05-14T12:03:35.821Z,66.8201
2023-05-14T12:04:35.482Z,66.3181
2023-05-14T12:05:36.148Z,69.0485
2023-05-14T12:06:38.167Z,69.3252
2023-05-14T12:07:37.924Z,69.6281
2023-05-14T12:12:40.472Z,73.5430
2023-05-14T12:13:41.867Z,72.7038
2023-05-14T12:14:42.592Z,73.4857
2023-05-14T12:21:54.434Z,79.1984
2023-05-14T12:22:55.209Z,79.6437
2023-05-14T12:23:55.923Z,79.9442
2023-05-14T12:24:57.145Z,80.3929
2023-05-14T12:25:57.719Z,80.4286
2023-05-14T12:26:58.028Z,80.6067
2023-05-14T12:27:58.380Z,81.2716
2023-05-14T12:28:59.170Z,81.1845
2023-05-14T12:30:09.203Z,81.5668
2023-05-14T12:31:00.486Z,82.3306
2023-05-14T12:33:02.928Z,82.5797
2023-05-14T12:34:04.087Z,82.5798
2023-05-14T12:36:20.746Z,83.6892
2023-05-14T12:37:07.549Z,83.5903
2023-05-14T12:38:07.682Z,83.7823
2023-05-14T12:39:08.894Z,84.3026
2023-05-14T12:40:10.353Z,84.5352
2023-05-14T12:41:11.491Z,85.3161
2023-05-14T12:42:12.172Z,84.5495
2023-05-14T12:43:12.506Z,85.0220
2023-05-14T12:45:13.720Z,85.7433
2023-05-14T12:49:17.886Z,83.7932
2023-05-14T12:51:19.740Z,83.4337
2023-05-14T12:53:24.058Z,85.3656
2023-05-14T12:56:25.357Z,83.8629
2023-05-14T12:58:26.328Z,83.7966
2023-05-14T12:59:26.587Z,84.5587
2023-05-14T13:00:26.922Z,83.8240
2023-05-14T13:01:27.608Z,84.0809
2023-05-14T13:02:28.637Z,83.3829
2023-05-14T13:03:29.138Z,82.4197
2023-05-14T13:04:30.438Z,81.9928
2023-05-14T13:05:31.541Z,82.1910
2023-05-14T13:06:32.491Z,82.3960
2023-05-14T13:07:32.957Z,80.1693
2023-05-14T13:08:33.400Z,81.6190
2023-05-14T13:09:33.980Z,81.9556
2023-05-14T13:10:34.598Z,81.5316
2023-05-14T13:17:42.272Z,78.1946
2023-05-14T13:19:42.870Z,79.3942
2023-05-14T13:20:43.482Z,79.2417
2023-05-14T13:21:44.105Z,78.0778
2023-05-14T13:22:44.853Z,79.2602
2023-05-14T13:24:46.768Z,77.8974
2023-05-14T13:27:47.396Z,77.9569
2023-05-14T13:29:48.274Z,76.4605
2023-05-14T13:36:53.498Z,77.0153
2023-05-14T13:37:54.516Z,75.9248
2023-05-14T13:38:55.648Z,75.1690
2023-05-14T13:39:55.921Z,74.9777
2023-05-14T13:40:56.322Z,75.7009
2023-05-14T13:41:56.628Z,75.3254
2023-05-14T13:42:57.701Z,74.8299
2023-05-14T13:43:58.388Z,73.5007
2023-05-14T13:45:58.741Z,72.6935
2023-05-14T13:46:58.944Z,72.6572
2023-05-14T13:47:59.526Z,72.9940
2023-05-14T13:48:59.625Z,72.8278
2023-05-14T13:50:00.865Z,70.9349
2023-05-14T13:51:02.019Z,71.4437
2023-05-14T13:52:02.447Z,72.6783
2023-05-14T13:53:03.301Z,73.7806
2023-05-14T13:54:04.301Z,76.0180
2023-05-14T13:55:04.976Z,75.1436
2023-05-14T13:56:05.321Z,74.6989
2023-05-14T13:57:06.434Z,72.9924
2023-05-14T13:58:06.861Z,71.5992
2023-05-14T13:59:06.689Z,70.6061
2023-05-14T14:00:07.354Z,68.6209
2023-05-14T14:01:07.701Z,68.3634
2023-05-14T14:03:08.775Z,67.0212
2023-05-14T14:04:09.603Z,64.4652
2023-05-14T14:05:10.144Z,64.3235
2023-05-14T14:06:10.472Z,66.7313
2023-05-14T14:07:11.301Z,66.3159
2023-05-14T14:08:23.473Z,65.2373
2023-05-14T14:09:19.039Z,64.1861
2023-05-14T14:12:20.772Z,68.4937
2023-05-14T14:13:21.778Z,69.0608
2023-05-14T14:14:20.932Z,69.1014
2023-05-14T14:15:20.937Z,68.7725
2023-05-14T14:16:22.129Z,69.5350
2023-05-14T14:17:23.109Z,65.5941
2023-05-14T14:25:28.709Z,67.6960
2023-05-14T14:26:28.718Z,65.9595
2023-05-14T14:27:29.449Z,67.1207
2023-05-14T14:28:29.759Z,67.7499
2023-05-14T14:29:29.853Z,68.2698
2023-05-14T14:30:30.958Z,68.5864
2023-05-14T14:31:31.860Z,68.0307
2023-05-14T14:32:33.058Z,67.6656
2023-05-14T14:33:33.480Z,69.5012
2023-05-14T14:34:34.567Z,70.0519
2023-05-14T14:35:35.329Z,70.2957
2023-05-14T14:36:35.785Z,70.8849
2023-05-14T14:37:37.340Z,70.0563
2023-05-14T14:44:39.665Z,72.2550
2023-05-14T14:45:40.014Z,71.3849
2023-05-14T14:46:41.032Z,71.5919
2023-05-14T14:47:42.171Z,72.3293
2023-05-14T14:48:42.501Z,72.2516
2023-05-14T14:49:43.372Z,72.8869
2023-05-14T14:50:43.824Z,73.1341
2023-05-14T14:51:45.472Z,74.5261
2023-05-14T14:52:46.742Z,76.7388
2023-05-14T14:53:47.152Z,78.2042
2023-05-14T14:54:47.356Z,79.9228
2023-05-14T14:55:48.613Z,80.6883
2023-05-14T14:56:49.833Z,81.2692
2023-05-14T14:57:51.061Z,81.5613
2023-05-14T14:58:51.011Z,82.5822
2023-05-14T14:59:51.059Z,83.4037
2023-05-14T15:00:52.163Z,84.6430
2023-05-14T15:01:52.667Z,84.5458
2023-05-14T15:02:52.930Z,86.0777
2023-05-14T15:03:54.010Z,84.6164
2023-05-14T15:04:54.753Z,85.3236
2023-05-14T15:05:55.498Z,85.0818
2023-05-14T15:06:55.902Z,85.7204
2023-05-14T15:07:56.360Z,86.0080
2023-05-14T15:08:57.465Z,85.6359
2023-05-14T15:09:58.014Z,86.3468
2023-05-14T15:10:58.208Z,86.1562
2023-05-14T15:11:58.437Z,87.0183
2023-05-14T15:12:58.534Z,86.7960
2023-05-14T15:13:59.154Z,87.1050
2023-05-14T15:14:59.615Z,87.4898
2023-05-14T15:16:00.701Z,87.6116
2023-05-14T15:17:01.240Z,88.4734
2023-05-14T15:18:02.418Z,89.0267
2023-05-14T15:19:02.691Z,89.8093
2023-05-14T15:20:03.305Z,89.7789
2023-05-14T15:21:04.445Z,90.0860
2023-05-14T15:22:04.440Z,89.8917
2023-05-14T15:23:05.124Z,89.7750
2023-05-14T15:24:05.786Z,89.0679
2023-05-14T15:25:05.997Z,90.1148
2023-05-14T15:26:06.025Z,91.0271
2023-05-14T15:27:07.096Z,91.2229
2023-05-14T15:28:08.216Z,91.3918
2023-05-14T15:29:08.455Z,92.0213
2023-05-14T15:30:09.203Z,92.3491
2023-05-14T15:31:10.253Z,92.1985
2023-05-14T15:32:11.610Z,92.3605
2023-05-14T15:33:12.387Z,91.9507
2023-05-14T15:34:14.053Z,91.3158
2023-05-14T15:35:13.751Z,88.8358
2023-05-14T15:36:14.213Z,85.2296
2023-05-14T15:37:14.290Z,86.4184
2023-05-14T15:38:15.311Z,88.4852
2023-05-14T15:39:15.696Z,90.3130
2023-05-14T15:40:16.000Z,89.3432
2023-05-14T15:41:17.366Z,89.3854
2023-05-14T15:43:18.195Z,88.0635
2023-05-14T15:45:20.945Z,88.1947
2023-05-14T15:46:22.054Z,90.1457
2023-05-14T15:47:22.791Z,88.8216
2023-05-14T15:48:23.848Z,88.8122
2023-05-14T15:49:24.193Z,89.1828
2023-05-14T15:50:25.276Z,89.7097
2023-05-14T15:51:25.122Z,90.1043
2023-05-14T15:52:26.116Z,90.0232
2023-05-14T15:53:26.977Z,90.1098
2023-05-14T15:54:27.835Z,90.0582
2023-05-14T15:55:28.098Z,89.6700
2023-05-14T15:56:28.931Z,90.0837
2023-05-14T15:57:29.790Z,89.7208
2023-05-14T15:58:29.856Z,89.2179
2023-05-14T15:59:30.890Z,88.9276
2023-05-14T16:00:32.024Z,88.7434
2023-05-14T16:01:32.556Z,88.6225
2023-05-14T16:02:33.449Z,88.8511
2023-05-14T16:03:34.067Z,89.0293
2023-05-14T16:04:34.371Z,89.0023
2023-05-14T16:05:35.517Z,87.8475
2023-05-14T16:06:36.278Z,88.2978
2023-05-14T16:07:37.534Z,88.5901
2023-05-14T16:08:38.275Z,89.1053
2023-05-14T16:09:38.778Z,89.4599
2023-05-14T16:10:39.668Z,88.4531
2023-05-14T16:11:39.885Z,88.4242
2023-05-14T16:12:40.790Z,88.7339
2023-05-14T16:14:42.079Z,90.7067
2023-05-14T16:16:42.776Z,91.3598
2023-05-14T16:17:44.504Z,89.5596
2023-05-14T16:18:45.368Z,89.5492
2023-05-14T16:19:45.783Z,90.2912
2023-05-14T16:20:46.731Z,90.5443
2023-05-14T16:21:47.211Z,91.9534
2023-05-14T16:22:47.841Z,92.8347
2023-05-14T16:23:48.648Z,93.3429
2023-05-14T16:24:49.149Z,93.4618
2023-05-14T16:25:50.498Z,93.4578
2023-05-14T16:27:50.759Z,92.6495
2023-05-14T16:28:52.335Z,92.3749
2023-05-14T16:29:52.762Z,92.7271
2023-05-14T16:30:53.926Z,93.0612
2023-05-14T16:31:54.946Z,93.2204
2023-05-14T16:32:56.051Z,93.4211
2023-05-14T16:33:57.194Z,93.5685
2023-05-14T16:34:57.652Z,93.7089
2023-05-14T16:35:58.169Z,93.7753
2023-05-14T16:38:00.089Z,93.7402
2023-05-14T16:39:07.314Z,93.7652
2023-05-14T16:40:03.325Z,93.9451
2023-05-14T16:41:03.843Z,94.0843
2023-05-14T16:42:03.932Z,94.1921
2023-05-14T16:43:04.809Z,94.2808
2023-05-14T16:44:05.044Z,94.4468
2023-05-14T16:45:05.805Z,94.5685
2023-05-14T16:46:06.497Z,94.6940
2023-05-14T16:47:07.231Z,94.7389
2023-05-14T16:49:08.146Z,94.6841
2023-05-14T16:52:09.814Z,94.0230
2023-05-14T16:53:10.128Z,93.3611
2023-05-14T16:54:10.276Z,93.2403
2023-05-14T16:57:13.330Z,93.3842
2023-05-14T16:58:14.193Z,93.3662
2023-05-14T16:59:15.334Z,93.5147
2023-05-14T17:00:16.442Z,93.5988
2023-05-14T17:01:17.833Z,93.6931
2023-05-14T17:02:18.638Z,93.8098
2023-05-14T17:03:18.681Z,93.9511
2023-05-14T17:04:19.321Z,94.1939
2023-05-14T17:05:19.690Z,94.3163
2023-05-14T17:06:20.564Z,94.4957
2023-05-14T17:07:21.362Z,94.6067
2023-05-14T17:08:22.681Z,94.5907
2023-05-14T17:09:24.115Z,94.6738
2023-05-14T17:10:24.450Z,94.8479
2023-05-14T17:11:25.543Z,95.0115
2023-05-14T17:12:25.746Z,95.1186
2023-05-14T17:15:28.129Z,95.3844
2023-05-14T17:16:27.870Z,95.4542
2023-05-14T17:17:28.761Z,95.5182
2023-05-14T17:19:29.431Z,95.5916
2023-05-14T17:20:29.911Z,95.6604
2023-05-14T17:22:32.389Z,95.6435
2023-05-14T17:23:32.565Z,95.7409
2023-05-14T17:24:32.630Z,95.7800
2023-05-14T17:25:33.398Z,95.8312
2023-05-14T17:27:36.861Z,95.7577
2023-05-14T17:28:38.013Z,95.7426
2023-05-14T17:29:39.351Z,95.7804
2023-05-14T17:30:39.416Z,95.7742
2023-05-14T17:31:40.269Z,95.8250
2023-05-14T17:32:41.621Z,95.8852
2023-05-14T17:33:42.600Z,95.9199
2023-05-14T17:34:43.595Z,95.9387
2023-05-14T17:35:44.463Z,95.9135
2023-05-14T17:36:44.371Z,95.9261
2023-05-14T17:37:45.120Z,95.9465
2023-05-14T17:38:47.508Z,95.9575
2023-05-14T17:48:53.030Z,93.7757
2023-05-14T17:49:53.201Z,93.4652
2023-05-14T17:50:54.249Z,93.2382
2023-05-14T17:51:55.167Z,93.6001
2023-05-14T17:52:56.789Z,93.9551
2023-05-14T17:53:56.383Z,94.1463
2023-05-14T17:54:57.246Z,94.2351
2023-05-14T17:55:57.346Z,94.3060
2023-05-14T17:56:58.110Z,94.3659
2023-05-14T17:57:59.321Z,94.4645
2023-05-14T17:59:00.055Z,94.4675
2023-05-14T18:00:01.183Z,94.4341
2023-05-14T18:01:01.301Z,94.4928
2023-05-14T18:02:01.942Z,94.5331
2023-05-14T18:03:02.360Z,94.5408
2023-05-14T18:04:02.549Z,94.5456
2023-05-14T18:05:02.998Z,94.5695
2023-05-14T18:06:03.592Z,94.6334
2023-05-14T18:07:04.522Z,94.6633
2023-05-14T18:08:05.957Z,94.7023
2023-05-14T18:09:07.105Z,94.7906
2023-05-14T18:10:07.167Z,94.8244
2023-05-14T18:11:07.917Z,94.6505
2023-05-14T18:12:08.697Z,94.5005
2023-05-14T18:13:09.675Z,94.4160
2023-05-14T18:14:11.055Z,94.3909
2023-05-14T18:15:11.328Z,94.3663
2023-05-14T18:16:12.015Z,94.3029
2023-05-14T18:17:12.367Z,94.0590
2023-05-14T18:18:12.655Z,94.2000
2023-05-14T18:19:13.387Z,94.3201
2023-05-14T18:20:13.487Z,94.3288
2023-05-14T18:21:14.830Z,94.4207
2023-05-14T18:23:15.340Z,94.6196
2023-05-14T18:24:16.039Z,94.6354
2023-05-14T18:25:16.636Z,94.6328
2023-05-14T18:26:18.008Z,94.6768
2023-05-14T18:28:19.014Z,94.5982
2023-05-14T18:29:19.918Z,94.7629
2023-05-14T18:30:20.327Z,94.7710
2023-05-14T18:31:21.041Z,94.8255
2023-05-14T18:32:21.202Z,94.8933
2023-05-14T18:42:12.675Z,96.0201
2023-05-14T18:43:13.708Z,96.0741
2023-05-14T18:44:13.862Z,96.1046
2023-05-14T18:45:14.512Z,96.1511
2023-05-14T18:46:16.056Z,96.2093
2023-05-14T18:47:17.084Z,96.2635
2023-05-14T18:48:17.150Z,96.3108
2023-05-14T18:49:18.397Z,96.3447
2023-05-14T18:50:19.269Z,96.3777
2023-05-14T18:51:19.374Z,96.4279
2023-05-14T18:52:20.435Z,96.4517
2023-05-14T18:53:22.302Z,96.4791
2023-05-14T18:58:26.618Z,96.6071
2023-05-14T18:59:26.904Z,96.6284
2023-05-14T19:01:27.801Z,96.6750
2023-05-14T19:04:33.135Z,96.7310
2023-05-14T19:05:31.141Z,96.7507
2023-05-14T19:11:35.279Z,96.8191
2023-05-14T19:12:35.509Z,96.8110
2023-05-14T19:14:38.572Z,96.8048
2023-05-14T19:15:38.721Z,96.8106
2023-05-14T19:16:39.995Z,96.8186
2023-05-14T19:17:42.078Z,96.8198
2023-05-14T19:18:42.729Z,96.8097